Time;durP1;ratioP1;P1;durP2;ratioP2;P2;SDS_P1;SDS_P2;PMS_P1;PMS_P2;Temp;Humidity;BMP_temperature;BMP_pressure;BME280_temperature;BME280_humidity;BME280_pressure;Samples;Min_cycle;Max_cycle;Signal;HPM_P1;HPM_P2
2021/12/18 00:01:11;;;;;;;2.70;2.50;;;14.30;64.30;15.40;103095.00;;;;4946870;29;20237;-39
2021/12/18 00:03:36;;;;;;;2.87;2.50;;;14.30;64.50;15.40;103099.00;;;;4948201;28;20252;-40
2021/12/18 00:06:02;;;;;;;2.70;2.50;;;14.30;64.40;15.40;103090.00;;;;4948238;28;20165;-40
2021/12/18 00:08:28;;;;;;;2.90;2.70;;;14.30;64.20;15.30;103091.00;;;;4946494;29;20181;-40
2021/12/18 00:10:55;;;;;;;2.70;2.50;;;14.30;64.30;15.30;103088.00;;;;4947520;28;20248;-40
2021/12/18 00:13:22;;;;;;;2.60;2.40;;;14.30;64.30;15.30;103092.00;;;;4947768;28;20354;-40
2021/12/18 00:15:49;;;;;;;2.70;2.50;;;14.30;64.40;15.30;103089.00;;;;4948089;28;20668;-40
2021/12/18 00:18:14;;;;;;;2.67;2.47;;;14.30;64.70;15.30;103084.00;;;;4947514;28;20166;-40
2021/12/18 00:20:40;;;;;;;2.63;2.43;;;14.30;64.20;15.30;103085.00;;;;4947901;28;20197;-40
2021/12/18 00:23:06;;;;;;;2.80;2.60;;;14.20;63.90;15.30;103083.00;;;;4947627;28;20180;-39
2021/12/18 00:25:32;;;;;;;2.70;2.50;;;14.20;63.90;15.30;103086.00;;;;4950959;28;20260;-40
2021/12/18 00:27:57;;;;;;;2.70;2.50;;;14.20;63.90;15.30;103079.00;;;;4948070;28;20248;-40
2021/12/18 00:30:23;;;;;;;2.60;2.40;;;14.20;64.00;15.30;103084.00;;;;4948088;28;20672;-41
2021/12/18 00:32:49;;;;;;;2.73;2.53;;;14.20;63.90;15.40;103084.00;;;;4947770;28;20365;-40
2021/12/18 00:35:15;;;;;;;2.50;2.30;;;14.20;63.80;15.30;103083.00;;;;4947811;28;20193;-40
2021/12/18 00:37:41;;;;;;;2.63;2.43;;;14.20;64.00;15.30;103086.00;;;;4947938;28;20178;-40
2021/12/18 00:40:11;;;;;;;2.67;2.47;;;14.20;64.10;15.30;103080.00;;;;4947606;28;20190;-40
2021/12/18 00:42:43;;;;;;;2.60;2.40;;;14.20;64.10;15.30;103083.00;;;;4948046;28;20169;-40
2021/12/18 00:45:11;;;;;;;2.67;2.47;;;14.20;63.90;15.30;103086.00;;;;4947918;28;20221;-40
2021/12/18 00:47:37;;;;;;;2.70;2.50;;;14.20;64.10;15.30;103077.00;;;;4947283;28;20181;-40
2021/12/18 00:50:04;;;;;;;2.70;2.50;;;14.20;63.90;15.30;103077.00;;;;4947875;28;20200;-40
2021/12/18 00:52:30;;;;;;;2.30;2.20;;;14.10;63.90;15.30;103089.00;;;;4947605;28;20181;-40
2021/12/18 00:54:56;;;;;;;3.10;2.80;;;14.10;63.90;15.30;103082.00;;;;4945994;29;20198;-40
2021/12/18 00:57:22;;;;;;;2.50;2.30;;;14.10;63.90;15.30;103098.00;;;;4947818;28;20594;-40
2021/12/18 00:59:50;;;;;;;2.77;2.57;;;14.20;63.90;15.30;103084.00;;;;4948437;28;20181;-39
2021/12/18 01:02:15;;;;;;;2.40;2.20;;;14.10;63.90;15.30;103086.00;;;;4951133;28;20310;-40
2021/12/18 01:04:41;;;;;;;2.50;2.30;;;14.10;63.90;15.30;103087.00;;;;4951335;28;20193;-40
2021/12/18 01:07:07;;;;;;;2.70;2.50;;;14.20;64.00;15.30;103081.00;;;;4951269;28;20182;-40
2021/12/18 01:12:16;;;;;;;2.60;2.40;;;14.10;63.90;15.30;103085.00;;;;4951337;29;20172;-40
2021/12/18 01:22:45;;;;;;;2.70;2.50;;;14.10;64.10;15.20;103090.00;;;;4950603;29;20201;-40
2021/12/18 01:25:11;;;;;;;2.60;2.40;;;14.00;63.90;15.20;103086.00;;;;4950399;28;20228;-40
2021/12/18 01:27:37;;;;;;;2.33;2.23;;;14.10;64.00;15.20;103081.00;;;;4950848;28;20170;-40
2021/12/18 01:30:08;;;;;;;2.70;2.50;;;14.00;63.90;15.20;103086.00;;;;4952955;28;20241;-40
2021/12/18 01:32:34;;;;;;;2.70;2.50;;;14.10;64.00;15.20;103084.00;;;;4955139;28;20182;-41
2021/12/18 01:35:01;;;;;;;2.77;2.57;;;14.10;63.90;15.20;103088.00;;;;4951626;28;20205;-40
2021/12/18 01:37:27;;;;;;;2.60;2.40;;;14.00;64.10;15.20;103085.00;;;;4950394;28;20185;-40
2021/12/18 01:39:53;;;;;;;2.57;2.37;;;14.00;63.70;15.20;103085.00;;;;4948991;29;20260;-40
2021/12/18 01:53:11;;;;;;;2.70;2.50;;;14.00;64.10;15.10;103082.00;;;;4949179;29;20252;-40
2021/12/18 01:55:38;;;;;;;2.80;2.60;;;14.00;64.00;15.10;103092.00;;;;4950234;28;20174;-40
2021/12/18 01:58:04;;;;;;;2.83;2.63;;;14.00;64.00;15.10;103080.00;;;;4949818;28;20165;-40
2021/12/18 02:00:39;;;;;;;2.70;2.50;;;14.00;63.70;15.10;103086.00;;;;4949476;28;20672;-40
2021/12/18 02:03:05;;;;;;;3.10;2.47;;;14.00;64.00;15.10;103081.00;;;;4949079;28;20458;-40
2021/12/18 02:05:31;;;;;;;2.67;2.47;;;14.00;63.90;15.10;103084.00;;;;4949622;28;20175;-40
2021/12/18 02:07:57;;;;;;;2.57;2.37;;;14.00;63.80;15.10;103082.00;;;;4949530;28;20535;-40
2021/12/18 02:10:27;;;;;;;2.60;2.40;;;14.00;64.20;15.10;103060.00;;;;4949679;28;20205;-40
2021/12/18 02:20:55;;;;;;;2.77;2.57;;;13.90;63.70;15.10;103068.00;;;;4949297;29;20330;-40
2021/12/18 02:23:21;;;;;;;2.70;2.50;;;14.00;64.30;15.10;103071.00;;;;4948697;28;20658;-40
2021/12/18 02:25:47;;;;;;;2.70;2.50;;;13.90;63.60;15.10;103070.00;;;;4949529;28;20212;-40
2021/12/18 02:28:17;;;;;;;2.90;2.70;;;13.90;63.90;15.10;103061.00;;;;4948663;28;20162;-40
2021/12/18 02:30:44;;;;;;;2.73;2.53;;;14.00;63.90;15.10;103068.00;;;;4948622;28;20717;-40
2021/12/18 02:33:10;;;;;;;2.70;2.50;;;14.20;63.90;15.20;103071.00;;;;4948690;28;20173;-40
2021/12/18 02:35:43;;;;;;;3.10;2.90;;;14.40;63.50;15.30;103058.00;;;;4949180;28;20668;-40
2021/12/18 02:38:23;;;;;;;2.93;2.73;;;14.70;63.60;15.40;103061.00;;;;4954441;28;20162;-40
2021/12/18 02:41:06;;;;;;;2.87;2.67;;;14.90;63.00;15.50;103061.00;;;;4949389;29;20197;-40
2021/12/18 02:43:37;;;;;;;2.87;2.67;;;15.30;62.40;15.70;103066.00;;;;4948612;28;20190;-40
2021/12/18 02:46:07;;;;;;;2.90;2.70;;;15.60;62.00;15.90;103048.00;;;;4949251;28;20319;-40
2021/12/18 02:48:38;;;;;;;2.63;2.43;;;15.70;61.70;16.00;103049.00;;;;4948926;28;20166;-40
2021/12/18 02:51:05;;;;;;;2.60;2.40;;;15.90;61.50;16.10;103047.00;;;;4949313;28;20170;-40
2021/12/18 02:53:31;;;;;;;2.60;2.40;;;15.90;62.10;16.20;103056.00;;;;4948145;28;20200;-40
2021/12/18 02:55:59;;;;;;;2.70;2.20;;;16.00;61.40;16.30;103044.00;;;;4948832;28;20253;-40
2021/12/18 02:58:25;;;;;;;2.50;2.30;;;16.00;61.50;16.30;103045.00;;;;4948453;28;20672;-40
2021/12/18 03:00:52;;;;;;;2.70;2.50;;;16.00;61.50;16.40;103050.00;;;;4950164;28;20447;-40
2021/12/18 03:03:18;;;;;;;2.60;2.40;;;16.00;61.60;16.50;103044.00;;;;4948090;28;20598;-38
2021/12/18 03:05:59;;;;;;;2.60;2.40;;;16.10;61.80;16.50;103047.00;;;;4948041;28;20174;-40
2021/12/18 03:08:39;;;;;;;2.33;2.13;;;16.00;61.90;16.60;103053.00;;;;4948261;28;20446;-40
2021/12/18 03:27:22;;;;;;;2.40;2.20;;;15.90;62.30;16.70;103036.00;;;;4966924;28;20192;-41
2021/12/18 03:29:48;;;;;;;2.27;2.13;;;15.90;62.50;16.60;103031.00;;;;4966500;28;20485;-40
2021/12/18 03:32:14;;;;;;;2.40;2.20;;;15.90;62.50;16.70;103032.00;;;;4960400;28;20182;-40
2021/12/18 03:34:40;;;;;;;2.57;2.37;;;15.90;62.70;16.70;103024.00;;;;4947884;28;20592;-40
2021/12/18 03:37:06;;;;;;;2.30;2.10;;;15.90;62.60;16.70;103021.00;;;;4947334;28;20613;-40
2021/12/18 03:39:31;;;;;;;2.50;2.30;;;15.90;62.70;16.70;103027.00;;;;4946881;28;20696;-40
2021/12/18 03:41:57;;;;;;;3.80;2.13;;;15.80;62.80;16.70;103030.00;;;;4947194;28;20204;-40
2021/12/18 03:44:23;;;;;;;2.40;2.20;;;15.80;62.90;16.60;103028.00;;;;4947614;28;20547;-40
2021/12/18 03:46:49;;;;;;;2.43;2.20;;;15.70;63.00;16.70;103024.00;;;;4947731;28;20220;-40
2021/12/18 03:49:14;;;;;;;2.10;2.00;;;15.70;63.00;16.70;103026.00;;;;4947356;28;20174;-40
2021/12/18 03:51:40;;;;;;;2.43;2.23;;;15.70;63.00;16.60;103018.00;;;;4946790;28;20173;-40
2021/12/18 03:54:06;;;;;;;2.20;2.10;;;15.70;63.00;16.60;103014.00;;;;4945592;29;20390;-40
2021/12/18 03:56:32;;;;;;;2.73;2.17;;;15.70;63.30;16.60;103023.00;;;;4947584;28;20166;-40
2021/12/18 03:58:57;;;;;;;2.20;2.10;;;15.70;63.10;16.30;103026.00;;;;4946699;28;20479;-40
2021/12/18 04:01:23;;;;;;;2.23;2.10;;;15.70;63.20;16.60;103027.00;;;;4946763;28;20208;-40
2021/12/18 04:03:49;;;;;;;2.40;2.20;;;15.70;63.30;16.60;102969.00;;;;4947364;28;20198;-40
2021/12/18 04:06:15;;;;;;;2.50;2.30;;;15.60;63.10;16.60;103034.00;;;;4946998;28;20306;-40
2021/12/18 04:08:40;;;;;;;2.53;2.07;;;15.60;63.20;16.60;103030.00;;;;4946999;28;20265;-40
2021/12/18 04:11:06;;;;;;;2.40;2.20;;;15.60;63.20;16.60;103024.00;;;;4947242;28;20827;-40
2021/12/18 04:13:32;;;;;;;2.20;2.10;;;15.60;63.30;16.50;103032.00;;;;4947150;28;20221;-40
2021/12/18 04:15:58;;;;;;;2.40;2.20;;;15.50;63.30;16.50;103035.00;;;;4947282;28;20205;-40
2021/12/18 04:18:24;;;;;;;2.17;2.07;;;15.50;63.40;16.50;103028.00;;;;4946877;28;20554;-40
2021/12/18 04:20:49;;;;;;;2.30;2.10;;;15.60;63.50;16.50;103035.00;;;;4946823;28;20208;-40
2021/12/18 04:23:15;;;;;;;2.00;1.90;;;15.50;63.50;16.50;103038.00;;;;4946620;28;20265;-40
2021/12/18 04:25:41;;;;;;;2.30;2.10;;;15.50;63.50;16.50;103048.00;;;;4947158;28;20177;-40
2021/12/18 04:28:07;;;;;;;2.20;2.10;;;15.50;64.30;16.50;103056.00;;;;4946978;28;20331;-40
2021/12/18 04:30:33;;;;;;;2.20;2.10;;;15.50;63.50;16.50;103049.00;;;;4949625;28;20182;-40
2021/12/18 04:32:58;;;;;;;2.40;2.20;;;15.40;63.50;16.50;103052.00;;;;4954191;28;20680;-40
2021/12/18 04:35:24;;;;;;;2.40;2.20;;;15.40;63.50;16.50;103059.00;;;;4955052;28;20212;-40
2021/12/18 04:37:50;;;;;;;2.30;2.10;;;15.40;63.50;16.40;103054.00;;;;4950759;28;20633;-40
2021/12/18 04:40:16;;;;;;;5.73;2.30;;;15.40;63.60;16.40;103057.00;;;;4950575;28;20166;-40
2021/12/18 04:42:41;;;;;;;2.27;2.00;;;15.40;63.60;16.40;103061.00;;;;4950544;28;20169;-40
2021/12/18 04:45:07;;;;;;;2.70;2.20;;;15.40;63.60;16.40;103054.00;;;;4950626;28;20189;-39
2021/12/18 04:47:33;;;;;;;5.20;1.90;;;15.30;63.60;16.40;103063.00;;;;4950730;28;20695;-39
2021/12/18 04:49:59;;;;;;;2.97;2.20;;;15.30;63.60;16.30;103054.00;;;;4950698;28;20174;-40
2021/12/18 04:52:25;;;;;;;2.80;2.10;;;15.30;63.60;16.30;103062.00;;;;4949797;28;20174;-39
2021/12/18 04:54:50;;;;;;;3.23;2.00;;;15.30;63.70;16.30;103063.00;;;;4950939;28;20213;-40
2021/12/18 04:57:17;;;;;;;2.40;2.20;;;15.30;63.70;16.30;103054.00;;;;4950368;28;20190;-40
2021/12/18 04:59:44;;;;;;;3.13;2.00;;;15.30;63.70;16.30;103060.00;;;;4949815;28;20182;-40
2021/12/18 05:02:16;;;;;;;2.33;2.13;;;15.30;63.60;16.30;103068.00;;;;4950390;28;20284;-40
2021/12/18 05:04:42;;;;;;;2.70;2.00;;;15.20;63.70;16.30;103059.00;;;;4948891;28;20201;-39
2021/12/18 05:07:10;;;;;;;2.70;2.20;;;15.20;63.60;16.30;103065.00;;;;4950407;28;20189;-40
2021/12/18 05:09:39;;;;;;;2.30;2.10;;;15.20;63.60;16.20;103052.00;;;;4950268;28;20178;-41
2021/12/18 05:12:05;;;;;;;2.67;2.07;;;15.20;63.70;16.20;103060.00;;;;4950586;28;20292;-38
2021/12/18 05:14:31;;;;;;;2.10;1.83;;;15.20;63.70;16.20;103060.00;;;;4949930;28;20518;-39
2021/12/18 05:16:57;;;;;;;2.03;1.93;;;15.10;63.60;16.20;103062.00;;;;4950461;28;20189;-39
2021/12/18 05:19:23;;;;;;;2.20;2.00;;;15.10;63.70;16.20;103053.00;;;;4949383;28;20181;-39
2021/12/18 05:21:49;;;;;;;2.40;2.20;;;15.10;63.80;16.20;103052.00;;;;4949505;28;20244;-39
2021/12/18 05:24:14;;;;;;;2.03;1.93;;;15.10;63.70;16.20;103057.00;;;;4949783;28;20193;-39
2021/12/18 05:26:40;;;;;;;2.10;2.00;;;15.10;63.70;16.20;103063.00;;;;4950294;28;20181;-39
2021/12/18 05:29:06;;;;;;;2.30;2.10;;;15.10;63.60;16.20;103049.00;;;;4949431;28;20183;-39
2021/12/18 05:31:32;;;;;;;2.27;2.07;;;15.10;63.70;16.20;103054.00;;;;4949752;28;20436;-39
2021/12/18 05:34:00;;;;;;;2.33;2.10;;;15.10;63.80;16.10;103052.00;;;;4949105;28;20279;-39
2021/12/18 05:39:15;;;;;;;2.27;1.97;;;15.10;64.70;16.10;103050.00;;;;4951862;28;20292;-40
2021/12/18 05:41:40;;;;;;;2.17;2.03;;;15.00;63.60;16.10;103042.00;;;;4949578;28;20198;-39
2021/12/18 05:44:06;;;;;;;2.33;2.07;;;15.00;63.70;16.10;103056.00;;;;4949563;28;20190;-40
2021/12/18 05:46:32;;;;;;;2.17;1.90;;;15.00;63.60;16.10;103052.00;;;;4948299;28;20185;-40
2021/12/18 05:48:58;;;;;;;2.87;2.20;;;15.00;63.50;16.10;103056.00;;;;4949455;28;20555;-40
2021/12/18 05:51:24;;;;;;;2.13;1.97;;;15.00;63.50;16.00;103048.00;;;;4949477;28;20202;-40
2021/12/18 05:53:49;;;;;;;2.40;2.20;;;15.00;63.60;16.00;103055.00;;;;4948885;28;20202;-39
2021/12/18 05:56:15;;;;;;;2.37;2.13;;;14.90;63.60;16.00;103047.00;;;;4949968;28;20185;-40
2021/12/18 05:58:43;;;;;;;2.03;1.93;;;14.90;63.50;16.00;103055.00;;;;4948555;28;20236;-40
2021/12/18 06:01:08;;;;;;;4.60;2.00;;;14.90;63.90;16.00;103057.00;;;;4948648;28;20755;-39
2021/12/18 06:03:34;;;;;;;2.23;2.03;;;15.00;63.90;16.00;103051.00;;;;4949061;28;20194;-39
2021/12/18 06:06:00;;;;;;;3.93;2.20;;;14.90;63.90;16.00;103055.00;;;;4948778;28;20181;-40
2021/12/18 06:08:26;;;;;;;2.60;2.20;;;14.90;63.90;16.00;103051.00;;;;4959597;28;20679;-39
2021/12/18 06:10:52;;;;;;;4.07;2.33;;;14.90;63.90;16.00;103053.00;;;;4967777;28;20227;-40
2021/12/18 06:13:18;;;;;;;4.67;2.30;;;14.90;64.00;16.00;103068.00;;;;4968165;28;20640;-39
2021/12/18 06:15:43;;;;;;;3.43;2.50;;;14.90;64.50;16.00;103060.00;;;;4967861;28;20181;-39
2021/12/18 06:18:09;;;;;;;5.23;2.43;;;14.90;64.40;16.00;103072.00;;;;4967279;28;20628;-40
2021/12/18 06:20:35;;;;;;;4.23;2.30;;;14.90;64.30;16.00;103070.00;;;;4968066;28;20291;-40
2021/12/18 06:23:01;;;;;;;3.43;2.53;;;14.90;64.20;16.00;103060.00;;;;4967717;28;20172;-40
2021/12/18 06:25:26;;;;;;;4.27;2.53;;;14.90;64.30;16.00;103075.00;;;;4968034;28;20240;-39
2021/12/18 06:27:52;;;;;;;5.07;2.60;;;14.80;64.10;16.00;103066.00;;;;4968147;28;20184;-40
2021/12/18 06:30:19;;;;;;;6.87;2.60;;;14.80;64.00;16.00;103069.00;;;;4967845;28;20177;-39
2021/12/18 06:32:45;;;;;;;6.80;2.50;;;14.80;63.90;15.90;103069.00;;;;4951367;28;20173;-39
2021/12/18 06:35:10;;;;;;;3.73;2.50;;;14.80;64.20;15.90;103066.00;;;;4948704;28;20617;-39
2021/12/18 06:37:36;;;;;;;4.23;2.80;;;14.80;64.30;15.90;103070.00;;;;4948695;28;20690;-40
2021/12/18 06:40:03;;;;;;;4.23;2.40;;;14.80;64.10;15.90;103073.00;;;;4948325;28;20252;-39
2021/12/18 06:42:29;;;;;;;3.67;2.40;;;14.80;64.40;15.90;103069.00;;;;4948713;28;20217;-40
2021/12/18 06:44:55;;;;;;;3.00;2.70;;;14.80;64.20;15.90;103076.00;;;;4948115;28;20386;-39
2021/12/18 06:47:20;;;;;;;4.03;2.30;;;14.70;63.90;15.90;103071.00;;;;4947966;28;20220;-40
2021/12/18 06:49:46;;;;;;;4.20;2.90;;;14.70;64.00;15.60;103084.00;;;;4948424;28;20468;-40
2021/12/18 06:52:12;;;;;;;3.03;2.40;;;14.70;64.00;15.90;103074.00;;;;4947905;28;20545;-40
2021/12/18 06:54:37;;;;;;;3.17;2.43;;;14.70;63.90;15.80;103076.00;;;;4948206;28;20198;-40
2021/12/18 06:57:03;;;;;;;3.67;2.53;;;14.70;64.00;15.80;103073.00;;;;4947784;28;20182;-39
2021/12/18 06:59:29;;;;;;;3.47;2.30;;;14.70;63.90;15.80;103086.00;;;;4946947;28;20644;-39
2021/12/18 07:01:55;;;;;;;3.83;2.70;;;14.70;64.00;15.80;103088.00;;;;4947642;28;20527;-40
2021/12/18 07:04:23;;;;;;;4.77;2.80;;;14.70;63.90;15.80;103078.00;;;;4948045;28;20425;-40
2021/12/18 07:06:48;;;;;;;2.93;2.73;;;14.70;64.10;15.80;103077.00;;;;4948117;28;20189;-40
2021/12/18 07:09:14;;;;;;;2.90;2.70;;;14.60;63.80;15.80;103079.00;;;;4946344;29;20158;-39
2021/12/18 07:11:40;;;;;;;2.90;2.60;;;14.60;64.10;15.80;103071.00;;;;4947750;28;20197;-40
2021/12/18 07:14:05;;;;;;;3.00;2.50;;;14.60;63.90;15.70;103083.00;;;;4947904;28;20221;-40
2021/12/18 07:16:31;;;;;;;3.33;2.87;;;14.60;64.00;15.70;103079.00;;;;4948194;28;20313;-40
2021/12/18 07:18:57;;;;;;;4.13;2.50;;;14.60;64.10;15.70;103080.00;;;;4947668;28;20266;-40
2021/12/18 07:21:23;;;;;;;3.53;2.90;;;14.60;64.30;15.70;103073.00;;;;4947603;28;20201;-40
2021/12/18 07:23:48;;;;;;;3.03;2.60;;;14.60;64.10;15.70;103085.00;;;;4947478;28;20272;-40
2021/12/18 07:26:14;;;;;;;3.10;2.80;;;14.60;64.00;15.70;103080.00;;;;4948025;28;20177;-40
2021/12/18 07:28:40;;;;;;;3.10;2.80;;;14.60;64.30;15.70;103081.00;;;;4947517;28;20522;-40
2021/12/18 07:31:06;;;;;;;3.03;2.83;;;14.60;64.10;15.70;103073.00;;;;4947488;28;20212;-40
2021/12/18 07:33:32;;;;;;;2.90;2.70;;;14.50;63.90;15.70;103080.00;;;;4963780;28;20688;-40
2021/12/18 07:35:58;;;;;;;3.13;2.80;;;14.50;63.70;15.70;103089.00;;;;4967627;28;20473;-39
2021/12/18 07:38:24;;;;;;;3.10;2.80;;;14.50;63.70;15.60;103080.00;;;;4966938;28;20193;-39
2021/12/18 07:40:49;;;;;;;2.80;2.60;;;14.50;63.70;15.60;103081.00;;;;4966613;28;20236;-39
2021/12/18 07:43:15;;;;;;;3.37;3.03;;;14.50;63.60;15.60;103079.00;;;;4966597;28;20188;-39
2021/12/18 07:45:41;;;;;;;3.27;2.97;;;14.50;63.50;15.60;103095.00;;;;4966636;28;20227;-40
2021/12/18 07:48:06;;;;;;;3.13;2.83;;;14.50;63.50;15.60;103087.00;;;;4966411;28;20667;-39
2021/12/18 07:50:32;;;;;;;3.20;2.90;;;14.50;63.70;15.60;103085.00;;;;4966054;28;20188;-39
2021/12/18 07:52:58;;;;;;;3.10;2.90;;;14.40;63.90;15.60;103076.00;;;;4966567;28;20293;-39
2021/12/18 07:55:24;;;;;;;3.10;2.90;;;14.50;63.90;15.60;103078.00;;;;4969133;28;20695;-40
2021/12/18 07:57:54;;;;;;;3.10;2.80;;;14.40;63.60;15.60;103079.00;;;;4966047;28;20242;-40
2021/12/18 08:00:19;;;;;;;2.90;2.70;;;14.40;63.70;15.60;103074.00;;;;4966044;28;20381;-40
2021/12/18 08:02:45;;;;;;;2.90;2.70;;;14.40;63.80;15.60;103069.00;;;;4966239;28;20879;-40
2021/12/18 08:05:11;;;;;;;3.23;2.90;;;14.40;63.70;15.60;103070.00;;;;4966802;28;20203;-39
2021/12/18 08:07:36;;;;;;;3.20;2.90;;;14.40;63.80;15.60;103079.00;;;;4966324;28;20177;-39
2021/12/18 08:10:04;;;;;;;3.13;2.87;;;14.40;64.40;15.60;103076.00;;;;4964938;28;20165;-39
2021/12/18 08:12:29;;;;;;;3.40;3.10;;;14.40;64.20;15.60;103070.00;;;;4966161;28;20292;-40
2021/12/18 08:14:56;;;;;;;3.20;2.90;;;14.40;64.30;15.50;103083.00;;;;4966741;28;20304;-39
2021/12/18 08:17:23;;;;;;;3.50;2.80;;;14.40;63.80;15.50;103084.00;;;;4966738;28;20199;-40
2021/12/18 08:19:48;;;;;;;3.20;3.00;;;14.40;63.80;15.50;103077.00;;;;4966317;28;20725;-39
2021/12/18 08:22:14;;;;;;;3.13;2.93;;;14.40;63.70;15.50;103081.00;;;;4967448;28;20211;-39
2021/12/18 08:24:40;;;;;;;3.53;3.23;;;14.30;63.50;15.50;103070.00;;;;4969190;28;20197;-40
2021/12/18 08:27:05;;;;;;;3.17;2.87;;;14.30;63.50;15.50;103082.00;;;;4969308;28;20176;-40
2021/12/18 08:29:31;;;;;;;3.00;2.77;;;14.30;63.70;15.50;103074.00;;;;4968961;28;20173;-40
2021/12/18 08:31:57;;;;;;;3.10;2.90;;;14.30;63.70;15.50;103082.00;;;;4969117;28;20192;-40
2021/12/18 08:34:23;;;;;;;3.10;2.90;;;14.30;63.50;15.50;103014.00;;;;4969328;28;20757;-40
2021/12/18 08:36:49;;;;;;;3.07;2.77;;;14.30;63.70;15.50;103068.00;;;;4968190;28;20246;-40
2021/12/18 08:39:15;;;;;;;3.40;3.10;;;14.30;63.80;15.50;103063.00;;;;4968393;28;20423;-40
2021/12/18 08:41:42;;;;;;;3.40;3.10;;;14.30;64.00;15.50;103056.00;;;;4969070;28;20197;-40
2021/12/18 08:44:08;;;;;;;3.50;3.20;;;14.30;63.90;15.50;103059.00;;;;4968785;28;20201;-40
2021/12/18 08:46:35;;;;;;;4.53;3.10;;;14.30;64.60;15.40;103069.00;;;;4969124;28;20189;-40
2021/12/18 08:49:00;;;;;;;3.20;2.90;;;14.30;64.00;15.40;103063.00;;;;4967342;28;20177;-40
2021/12/18 08:51:26;;;;;;;3.20;2.90;;;14.30;63.90;15.40;103060.00;;;;4968258;28;20216;-40
2021/12/18 08:53:53;;;;;;;3.43;3.13;;;14.30;63.90;15.40;103075.00;;;;4969295;28;20677;-40
2021/12/18 08:56:18;;;;;;;3.37;3.07;;;14.30;63.90;15.40;103070.00;;;;4966190;28;20188;-40
2021/12/18 08:58:48;;;;;;;3.63;3.33;;;14.30;64.00;15.10;103059.00;;;;4948622;28;20162;-40
2021/12/18 09:01:17;;;;;;;3.40;3.10;;;14.30;63.80;15.40;103064.00;;;;4972042;28;20217;-40
2021/12/18 09:03:44;;;;;;;3.60;3.30;;;14.30;63.50;15.40;103063.00;;;;4974103;28;20205;-41
2021/12/18 09:06:10;;;;;;;3.37;3.00;;;14.30;63.80;15.40;103063.00;;;;4953117;28;20679;-40
2021/12/18 09:08:36;;;;;;;3.33;3.03;;;14.30;63.40;15.40;103063.00;;;;4948994;28;20170;-40
2021/12/18 09:11:02;;;;;;;3.37;3.10;;;14.20;63.40;15.40;103067.00;;;;4948911;28;20192;-40
2021/12/18 09:13:27;;;;;;;3.00;2.80;;;14.20;63.30;15.40;103072.00;;;;4949117;28;20201;-40
2021/12/18 09:15:53;;;;;;;3.00;2.80;;;14.20;63.70;15.40;103071.00;;;;4949344;28;20174;-40
2021/12/18 09:18:19;;;;;;;3.40;3.10;;;14.20;63.80;15.40;103075.00;;;;4947991;29;20664;-40
2021/12/18 09:20:46;;;;;;;3.40;3.10;;;14.20;63.60;15.40;103073.00;;;;4948591;28;20692;-39
2021/12/18 09:23:15;;;;;;;3.60;3.30;;;14.20;63.90;15.30;103082.00;;;;4952763;28;20216;-39
2021/12/18 09:25:41;;;;;;;3.20;3.00;;;14.20;63.80;15.30;103079.00;;;;4953004;28;20197;-38
2021/12/18 09:28:07;;;;;;;3.40;3.10;;;14.20;63.40;15.30;103088.00;;;;4951493;29;20703;-39
2021/12/18 09:30:33;;;;;;;2.83;2.63;;;14.20;63.70;15.30;103077.00;;;;4952200;28;20182;-39
2021/12/18 09:32:59;;;;;;;3.60;3.30;;;14.20;63.90;15.30;103088.00;;;;4952502;28;20185;-39
2021/12/18 09:35:25;;;;;;;2.90;2.70;;;14.20;63.70;15.30;103090.00;;;;4952588;28;20209;-39
2021/12/18 09:37:50;;;;;;;3.27;2.97;;;14.20;63.70;15.30;103094.00;;;;4952445;28;20911;-39
2021/12/18 09:40:18;;;;;;;3.27;2.97;;;14.20;63.60;15.30;103081.00;;;;4951611;29;20178;-40
2021/12/18 09:42:44;;;;;;;3.20;2.90;;;14.10;63.50;15.30;103085.00;;;;4951369;29;20178;-39
2021/12/18 09:45:10;;;;;;;3.57;3.27;;;14.20;63.50;15.30;103078.00;;;;4952696;28;20384;-41
2021/12/18 09:47:35;;;;;;;4.67;3.30;;;14.10;63.90;15.30;103087.00;;;;4952915;28;20253;-41
2021/12/18 09:50:01;;;;;;;5.87;3.50;;;14.10;65.40;15.30;103086.00;;;;4951224;29;20542;-40
2021/12/18 09:52:27;;;;;;;4.77;3.17;;;14.20;64.70;15.30;103084.00;;;;4952395;28;20240;-39
2021/12/18 09:54:56;;;;;;;8.10;3.63;;;14.20;65.00;15.10;103082.00;;;;4919120;29;20205;-39
2021/12/18 09:57:22;;;;;;;8.87;3.40;;;14.20;65.30;15.30;103083.00;;;;4952233;28;20182;-40
2021/12/18 09:59:48;;;;;;;8.33;3.50;;;14.20;66.70;15.40;103074.00;;;;4952924;28;20216;-40
2021/12/18 10:02:14;;;;;;;9.67;3.87;;;14.20;68.10;15.40;103064.00;;;;4952084;28;20708;-40
2021/12/18 10:04:40;;;;;;;8.47;3.77;;;14.30;69.10;15.40;103063.00;;;;4952149;28;20591;-39
2021/12/18 10:07:25;;;;;;;19.27;4.30;;;14.30;68.60;15.40;103073.00;;;;4952055;28;20181;-39
2021/12/18 10:09:58;;;;;;;22.27;5.17;;;14.30;69.90;15.30;103062.00;;;;4953560;28;20526;-40
2021/12/18 10:12:31;;;;;;;16.10;4.50;;;14.40;69.90;15.40;103058.00;;;;4952180;28;20185;-40
2021/12/18 10:15:13;;;;;;;19.27;4.40;;;14.30;70.30;15.40;103051.00;;;;4951993;28;20202;-40
2021/12/18 10:17:41;;;;;;;17.37;4.13;;;14.30;70.50;15.40;103044.00;;;;4951952;28;20173;-39
2021/12/18 10:20:09;;;;;;;20.07;4.23;;;14.30;70.90;15.30;103047.00;;;;4951977;28;20182;-39
2021/12/18 10:22:36;;;;;;;11.60;4.60;;;14.30;70.50;15.40;103056.00;;;;4951472;28;20205;-40
2021/12/18 10:25:05;;;;;;;16.07;4.60;;;14.20;70.60;15.40;103052.00;;;;4950590;29;20190;-40
2021/12/18 10:27:31;;;;;;;8.83;4.07;;;14.20;70.40;15.40;103043.00;;;;4951643;28;20216;-40
2021/12/18 10:30:20;;;;;;;12.07;4.00;;;14.20;69.90;15.40;103054.00;;;;4952070;28;20201;-40
2021/12/18 10:33:06;;;;;;;10.97;4.20;;;14.20;69.60;15.30;103044.00;;;;4952364;28;20184;-40
2021/12/18 10:35:50;;;;;;;8.37;3.90;;;14.20;69.00;15.30;103037.00;;;;4954126;28;20198;-40
2021/12/18 10:38:50;;;;;;;7.67;3.80;;;14.20;68.60;15.30;103052.00;;;;4951795;28;20511;-40
2021/12/18 10:41:29;;;;;;;8.33;4.13;;;14.20;68.00;15.30;103026.00;;;;4951409;28;20205;-40
2021/12/18 10:44:10;;;;;;;8.33;3.77;;;14.20;67.80;15.30;103033.00;;;;4951684;29;20201;-40
2021/12/18 10:46:41;;;;;;;8.57;3.70;;;14.10;67.40;15.30;103023.00;;;;4951313;29;20197;-40
2021/12/18 10:49:09;;;;;;;7.30;3.90;;;14.10;67.60;15.20;103020.00;;;;4951572;28;20154;-40
2021/12/18 10:51:37;;;;;;;6.13;3.77;;;14.20;67.20;15.20;103030.00;;;;4951092;28;20174;-40
2021/12/18 10:54:21;;;;;;;5.53;3.83;;;14.10;67.10;15.20;103026.00;;;;4951408;28;20205;-40
2021/12/18 10:56:52;;;;;;;7.70;3.60;;;14.10;67.00;15.20;103012.00;;;;4951331;28;20174;-40
2021/12/18 10:59:32;;;;;;;7.63;3.70;;;14.10;67.00;15.20;103016.00;;;;4950768;28;20708;-40
2021/12/18 11:02:03;;;;;;;6.37;3.60;;;14.10;66.70;15.20;103023.00;;;;4951047;28;20287;-40
2021/12/18 11:04:34;;;;;;;5.47;3.63;;;14.10;66.80;15.20;103021.00;;;;4962909;28;20213;-40
2021/12/18 11:07:15;;;;;;;7.90;3.90;;;14.00;66.60;15.20;103022.00;;;;4967092;28;20185;-40
2021/12/18 11:09:46;;;;;;;5.33;3.43;;;14.00;66.70;15.20;103014.00;;;;4963953;28;20185;-40
2021/12/18 11:14:56;;;;;;;5.77;3.57;;;14.10;66.40;15.20;103008.00;;;;4969050;28;20239;-40
2021/12/18 11:17:21;;;;;;;6.67;3.87;;;14.10;66.30;15.20;103007.00;;;;4970659;28;20185;-40
2021/12/18 11:19:47;;;;;;;5.60;3.93;;;14.00;66.40;15.20;103013.00;;;;4949052;29;20586;-40
2021/12/18 11:22:15;;;;;;;6.87;3.90;;;14.00;66.20;15.10;103010.00;;;;4965314;28;20205;-40
2021/12/18 11:24:46;;;;;;;6.87;3.97;;;14.00;65.80;15.10;102996.00;;;;4950610;28;20204;-40
2021/12/18 11:27:17;;;;;;;6.37;4.20;;;14.00;66.00;15.10;103004.00;;;;4967973;28;20173;-40
2021/12/18 11:30:05;;;;;;;5.97;3.90;;;14.00;65.90;15.10;102997.00;;;;4970655;28;20261;-40
2021/12/18 11:32:33;;;;;;;4.80;3.80;;;14.00;66.20;15.10;102992.00;;;;4959697;28;20225;-39
2021/12/18 11:35:04;;;;;;;4.03;3.63;;;14.00;66.30;15.10;102989.00;;;;4950525;28;20491;-40
2021/12/18 11:37:39;;;;;;;5.47;4.20;;;14.00;66.00;15.10;102987.00;;;;4950414;28;20186;-39
2021/12/18 11:40:06;;;;;;;4.90;3.57;;;14.00;66.00;15.10;102961.00;;;;4949304;28;20185;-39